createdAt,value
2017-07-22T00:00:10.601Z,1011.49
2017-07-22T00:00:51.509Z,1011.49
2017-07-22T00:01:32.383Z,1011.49
2017-07-22T00:02:13.272Z,1011.47
2017-07-22T00:02:54.159Z,1011.51
2017-07-22T00:03:35.043Z,1011.53
2017-07-22T00:04:15.931Z,1011.52
2017-07-22T00:04:56.828Z,1011.55
2017-07-22T00:05:37.723Z,1011.52
2017-07-22T00:06:18.603Z,1011.52
2017-07-22T00:06:59.499Z,1011.54
2017-07-22T00:07:40.386Z,1011.53
2017-07-22T00:08:21.267Z,1011.52
2017-07-22T00:09:02.179Z,1011.52
2017-07-22T00:09:43.087Z,1011.5
2017-07-22T00:10:23.947Z,1011.58
2017-07-22T00:11:04.838Z,1011.58
2017-07-22T00:11:45.733Z,1011.61
2017-07-22T00:12:26.609Z,1011.63
2017-07-22T00:13:07.501Z,1011.62
2017-07-22T00:13:48.401Z,1011.65
2017-07-22T00:14:29.295Z,1011.57
2017-07-22T00:15:10.182Z,1011.65
2017-07-22T00:15:51.062Z,1011.64
2017-07-22T00:16:31.943Z,1011.6
2017-07-22T00:17:12.827Z,1011.63
2017-07-22T00:17:53.721Z,1011.67
2017-07-22T00:18:34.610Z,1011.63
2017-07-22T00:19:15.498Z,1011.61
2017-07-22T00:19:56.397Z,1011.59
2017-07-22T00:20:37.297Z,1011.64
2017-07-22T00:21:18.193Z,1011.63
2017-07-22T00:21:59.077Z,1011.64
2017-07-22T00:22:39.983Z,1011.62
2017-07-22T00:23:20.886Z,1011.62
2017-07-22T00:24:01.771Z,1011.6
2017-07-22T00:24:42.661Z,1011.58
2017-07-22T00:25:23.545Z,1011.52
2017-07-22T00:26:04.441Z,1011.54
2017-07-22T00:26:45.336Z,1011.51
2017-07-22T00:27:26.224Z,1011.53
2017-07-22T00:28:07.104Z,1011.56
2017-07-22T00:28:48.010Z,1011.47
2017-07-22T00:29:28.898Z,1011.53
2017-07-22T00:30:09.783Z,1011.54
2017-07-22T00:30:50.665Z,1011.57
2017-07-22T00:31:31.558Z,1011.58
2017-07-22T00:32:12.449Z,1011.56
2017-07-22T00:32:53.331Z,1011.56
2017-07-22T00:33:34.230Z,1011.59
2017-07-22T00:34:15.117Z,1011.57
2017-07-22T00:34:56.007Z,1011.57
2017-07-22T00:35:36.898Z,1011.54
2017-07-22T00:36:17.810Z,1011.55
2017-07-22T00:36:58.707Z,1011.56
2017-07-22T00:37:39.597Z,1011.53
2017-07-22T00:38:20.490Z,1011.52
2017-07-22T00:39:01.380Z,1011.5
2017-07-22T00:39:42.265Z,1011.49
2017-07-22T00:40:23.155Z,1011.53
2017-07-22T00:41:04.048Z,1011.51
2017-07-22T00:41:44.940Z,1011.5
2017-07-22T00:42:25.830Z,1011.5
2017-07-22T00:43:06.729Z,1011.54
2017-07-22T00:43:47.628Z,1011.49
2017-07-22T00:44:28.516Z,1011.53
2017-07-22T00:45:09.407Z,1011.51
2017-07-22T00:45:50.295Z,1011.54
2017-07-22T00:46:31.187Z,1011.52
2017-07-22T00:47:12.080Z,1011.49
2017-07-22T00:47:52.980Z,1011.49
2017-07-22T00:48:33.863Z,1011.48
2017-07-22T00:49:14.759Z,1011.48
2017-07-22T00:49:55.643Z,1011.5
2017-07-22T00:50:36.533Z,1011.48
2017-07-22T00:51:17.411Z,1011.44
2017-07-22T00:51:58.324Z,1011.45
2017-07-22T00:52:39.217Z,1011.45
2017-07-22T00:53:20.109Z,1011.44
2017-07-22T00:54:01.015Z,1011.43
2017-07-22T00:54:41.888Z,1011.41
2017-07-22T00:55:22.776Z,1011.41
2017-07-22T00:56:03.673Z,1011.44
2017-07-22T00:56:44.556Z,1011.36
2017-07-22T00:57:25.438Z,1011.36
2017-07-22T00:58:06.327Z,1011.37
2017-07-22T00:58:47.231Z,1011.35
2017-07-22T00:59:28.118Z,1011.34
2017-07-22T01:00:09.017Z,1011.29
2017-07-22T01:00:49.906Z,1011.27
2017-07-22T01:01:30.792Z,1011.26
2017-07-22T01:02:11.700Z,1011.25
2017-07-22T01:02:52.587Z,1011.24
2017-07-22T01:03:33.489Z,1011.2
2017-07-22T01:04:14.378Z,1011.21
2017-07-22T01:04:55.267Z,1011.23
2017-07-22T01:05:36.157Z,1011.22
2017-07-22T01:06:17.049Z,1011.25
2017-07-22T01:06:57.940Z,1011.29
2017-07-22T01:07:38.855Z,1011.25
2017-07-22T01:08:19.751Z,1011.26
2017-07-22T01:09:00.645Z,1011.28
2017-07-22T01:09:41.542Z,1011.24
2017-07-22T01:10:22.439Z,1011.26
2017-07-22T01:11:03.338Z,1011.25
2017-07-22T01:11:44.232Z,1011.21
2017-07-22T01:12:25.126Z,1011.25
2017-07-22T01:13:06.023Z,1011.2
2017-07-22T01:13:46.917Z,1011.21
2017-07-22T01:14:27.796Z,1011.23
2017-07-22T01:15:08.699Z,1011.19
2017-07-22T01:15:49.595Z,1011.22
2017-07-22T01:16:30.490Z,1011.18
2017-07-22T01:17:11.395Z,1011.19
2017-07-22T01:17:52.272Z,1011.2
2017-07-22T01:18:33.168Z,1011.22
2017-07-22T01:19:14.078Z,1011.25
2017-07-22T01:19:54.979Z,1011.22
2017-07-22T01:20:35.872Z,1011.26
2017-07-22T01:21:16.764Z,1011.25
2017-07-22T01:21:57.653Z,1011.21
2017-07-22T01:22:38.553Z,1011.22
2017-07-22T01:23:19.441Z,1011.24
2017-07-22T01:24:00.328Z,1011.24
2017-07-22T01:24:41.225Z,1011.22
2017-07-22T01:25:22.119Z,1011.2
2017-07-22T01:26:03.017Z,1011.23
2017-07-22T01:26:43.925Z,1011.23
2017-07-22T01:27:24.800Z,1011.2
2017-07-22T01:28:05.700Z,1011.21
2017-07-22T01:28:46.581Z,1011.19
2017-07-22T01:29:27.467Z,1011.18
2017-07-22T01:30:08.357Z,1011.15
2017-07-22T01:30:49.254Z,1011.16
2017-07-22T01:31:30.145Z,1011.16
2017-07-22T01:32:11.049Z,1011.17
2017-07-22T01:32:51.948Z,1011.15
2017-07-22T01:33:32.835Z,1011.15
2017-07-22T01:34:13.729Z,1011.12
2017-07-22T01:34:54.625Z,1011.11
2017-07-22T01:35:35.510Z,1011.1
2017-07-22T01:36:16.408Z,1011.11
2017-07-22T01:36:57.300Z,1011.1
2017-07-22T01:37:38.188Z,1011.07
2017-07-22T01:38:19.077Z,1011.11
2017-07-22T01:38:59.969Z,1011.08
2017-07-22T01:39:40.863Z,1011.06
2017-07-22T01:40:21.756Z,1011.07
2017-07-22T01:41:02.647Z,1011.04
2017-07-22T01:41:43.537Z,1011.05
2017-07-22T01:42:24.434Z,1011.09
2017-07-22T01:43:05.337Z,1011.08
2017-07-22T01:43:46.227Z,1011.07
2017-07-22T01:44:27.121Z,1011.06
2017-07-22T01:45:08.017Z,1011.05
2017-07-22T01:45:48.900Z,1011
2017-07-22T01:46:29.804Z,1011
2017-07-22T01:47:10.696Z,1010.98
2017-07-22T01:47:51.578Z,1011
2017-07-22T01:48:32.472Z,1010.92
2017-07-22T01:49:13.374Z,1010.92
2017-07-22T01:49:54.257Z,1010.9
2017-07-22T01:50:35.157Z,1010.88
2017-07-22T01:51:16.041Z,1010.92
2017-07-22T01:51:56.924Z,1010.88
2017-07-22T01:52:37.814Z,1010.85
2017-07-22T01:53:18.742Z,1010.9
2017-07-22T01:53:59.622Z,1010.9
2017-07-22T01:54:40.512Z,1010.87
2017-07-22T01:55:21.401Z,1010.9
2017-07-22T01:56:02.296Z,1010.9
2017-07-22T01:56:43.191Z,1010.9
2017-07-22T01:57:24.076Z,1010.86
2017-07-22T01:58:04.961Z,1010.89
2017-07-22T01:58:45.859Z,1010.9
2017-07-22T01:59:26.752Z,1010.94
2017-07-22T02:00:07.643Z,1010.95
2017-07-22T02:00:48.532Z,1010.99
2017-07-22T02:01:29.422Z,1010.97
2017-07-22T02:02:10.295Z,1011.01
2017-07-22T02:02:51.193Z,1010.98
2017-07-22T02:03:32.086Z,1010.96
2017-07-22T02:04:12.976Z,1010.96
2017-07-22T02:04:53.857Z,1010.98
2017-07-22T02:05:34.757Z,1010.96
2017-07-22T02:06:15.633Z,1010.94
2017-07-22T02:06:56.529Z,1010.92
2017-07-22T02:07:37.420Z,1010.87
2017-07-22T02:08:18.308Z,1010.89
2017-07-22T02:08:59.190Z,1010.92
2017-07-22T02:09:40.085Z,1010.89
2017-07-22T02:10:20.984Z,1010.91
2017-07-22T02:11:01.850Z,1010.9
2017-07-22T02:11:42.753Z,1010.88
2017-07-22T02:12:23.670Z,1010.81
2017-07-22T02:13:04.533Z,1010.87
2017-07-22T02:13:45.432Z,1010.89
2017-07-22T02:14:26.346Z,1010.88
2017-07-22T02:15:07.242Z,1010.85
2017-07-22T02:15:48.134Z,1010.86
2017-07-22T02:16:29.013Z,1010.84
2017-07-22T02:17:09.896Z,1010.87
2017-07-22T02:17:50.799Z,1010.86
2017-07-22T02:18:31.688Z,1010.87
2017-07-22T02:19:12.571Z,1010.83
2017-07-22T02:19:53.459Z,1010.86
2017-07-22T02:20:34.365Z,1010.87
2017-07-22T02:21:15.237Z,1010.85
2017-07-22T02:21:56.120Z,1010.85
2017-07-22T02:22:37.017Z,1010.9
2017-07-22T02:23:17.922Z,1010.87
2017-07-22T02:23:58.839Z,1010.93
2017-07-22T02:24:39.737Z,1010.92
2017-07-22T02:25:20.623Z,1010.96
2017-07-22T02:26:01.516Z,1010.93
2017-07-22T02:26:42.409Z,1010.97
2017-07-22T02:27:23.303Z,1011
2017-07-22T02:28:04.203Z,1011
2017-07-22T02:28:45.088Z,1011.01
2017-07-22T02:29:25.981Z,1011.02
2017-07-22T02:30:06.872Z,1011.01
2017-07-22T02:30:47.766Z,1011
2017-07-22T02:31:28.658Z,1010.98
2017-07-22T02:32:09.557Z,1010.98
2017-07-22T02:32:50.444Z,1010.98
2017-07-22T02:33:31.336Z,1010.93
2017-07-22T02:34:12.232Z,1010.94
2017-07-22T02:34:53.127Z,1010.99
2017-07-22T02:35:34.020Z,1010.95
2017-07-22T02:36:14.907Z,1010.95
2017-07-22T02:36:55.794Z,1010.93
2017-07-22T02:37:36.683Z,1010.9
2017-07-22T02:38:17.585Z,1010.89
2017-07-22T02:38:58.475Z,1010.9
2017-07-22T02:39:39.378Z,1010.86
2017-07-22T02:40:20.268Z,1010.88
2017-07-22T02:41:01.157Z,1010.9
2017-07-22T02:41:42.086Z,1010.88
2017-07-22T02:42:22.974Z,1010.89
2017-07-22T02:43:03.877Z,1010.87
2017-07-22T02:43:44.787Z,1010.87
2017-07-22T02:44:25.669Z,1010.87
2017-07-22T02:45:06.570Z,1010.87
2017-07-22T02:45:47.456Z,1010.88
2017-07-22T02:46:28.341Z,1010.9
2017-07-22T02:47:09.231Z,1010.9
2017-07-22T02:47:50.128Z,1010.89
2017-07-22T02:48:31.017Z,1010.87
2017-07-22T02:49:11.905Z,1010.88
2017-07-22T02:49:52.805Z,1010.87
2017-07-22T02:50:33.692Z,1010.88
2017-07-22T02:51:14.598Z,1010.9
2017-07-22T02:51:55.480Z,1010.91
2017-07-22T02:52:36.367Z,1010.9
2017-07-22T02:53:17.275Z,1010.89
2017-07-22T02:53:58.157Z,1010.9
2017-07-22T02:54:39.043Z,1010.9
2017-07-22T02:55:19.932Z,1010.88
2017-07-22T02:56:00.820Z,1010.89
2017-07-22T02:56:41.711Z,1010.9
2017-07-22T02:57:22.601Z,1010.9
2017-07-22T02:58:03.499Z,1010.9
2017-07-22T02:58:44.379Z,1010.91
2017-07-22T02:59:25.282Z,1010.91
2017-07-22T03:00:06.173Z,1010.93
2017-07-22T03:00:47.071Z,1010.92
2017-07-22T03:01:27.960Z,1010.97
2017-07-22T03:02:08.856Z,1010.98
2017-07-22T03:02:49.743Z,1010.94
2017-07-22T03:03:30.635Z,1010.98
2017-07-22T03:04:11.525Z,1011.01
2017-07-22T03:04:52.438Z,1010.99
2017-07-22T03:05:33.344Z,1011.02
2017-07-22T03:06:14.223Z,1011.03
2017-07-22T03:06:55.137Z,1011.01
2017-07-22T03:07:36.028Z,1011.02
2017-07-22T03:08:16.928Z,1011.03
2017-07-22T03:08:57.818Z,1011.05
2017-07-22T03:09:38.705Z,1011.03
2017-07-22T03:10:19.616Z,1011.06
2017-07-22T03:11:00.494Z,1011.06
2017-07-22T03:11:41.413Z,1011.03
2017-07-22T03:12:22.284Z,1011.02
2017-07-22T03:13:03.171Z,1011.08
2017-07-22T03:13:44.062Z,1011.05
2017-07-22T03:14:24.980Z,1011.04
2017-07-22T03:15:05.862Z,1011.06
2017-07-22T03:15:46.764Z,1011.06
2017-07-22T03:16:27.654Z,1011.07
2017-07-22T03:17:08.544Z,1011.06
2017-07-22T03:17:49.437Z,1011.05
2017-07-22T03:18:30.357Z,1011.05
2017-07-22T03:19:11.225Z,1010.99
2017-07-22T03:19:52.089Z,1011.04
2017-07-22T03:20:32.980Z,1010.99
2017-07-22T03:21:13.882Z,1010.98
2017-07-22T03:21:54.783Z,1011.01
2017-07-22T03:22:35.674Z,1011.01
2017-07-22T03:23:16.575Z,1010.99
2017-07-22T03:23:57.462Z,1010.99
2017-07-22T03:24:38.365Z,1011
2017-07-22T03:25:19.254Z,1010.99
2017-07-22T03:26:00.153Z,1011.01
2017-07-22T03:26:41.043Z,1010.97
2017-07-22T03:27:21.939Z,1011.01
2017-07-22T03:28:02.825Z,1011.02
2017-07-22T03:28:43.717Z,1011.02
2017-07-22T03:29:24.609Z,1010.99
2017-07-22T03:30:05.506Z,1010.97
2017-07-22T03:30:46.398Z,1010.98
2017-07-22T03:31:27.302Z,1010.99
2017-07-22T03:32:08.187Z,1010.98
2017-07-22T03:32:49.068Z,1010.99
2017-07-22T03:33:29.959Z,1010.99
2017-07-22T03:34:10.856Z,1010.95
2017-07-22T03:34:51.758Z,1010.94
2017-07-22T03:35:32.642Z,1010.95
2017-07-22T03:36:13.532Z,1010.98
2017-07-22T03:36:54.422Z,1010.96
2017-07-22T03:37:35.311Z,1010.94
2017-07-22T03:38:16.212Z,1010.98
2017-07-22T03:38:57.096Z,1010.99
2017-07-22T03:39:37.977Z,1011
2017-07-22T03:40:18.874Z,1011
2017-07-22T03:40:59.764Z,1011
2017-07-22T03:41:40.643Z,1010.97
2017-07-22T03:42:21.527Z,1010.97
2017-07-22T03:43:02.421Z,1010.97
2017-07-22T03:43:43.315Z,1010.94
2017-07-22T03:44:24.205Z,1010.93
2017-07-22T03:45:05.101Z,1010.93
2017-07-22T03:45:45.983Z,1010.96
2017-07-22T03:46:26.878Z,1010.94
2017-07-22T03:47:07.770Z,1010.95
2017-07-22T03:47:48.669Z,1010.96
2017-07-22T03:48:29.556Z,1010.94
2017-07-22T03:49:10.443Z,1010.91
2017-07-22T03:49:51.330Z,1010.87
2017-07-22T03:50:32.229Z,1010.87
2017-07-22T03:51:13.126Z,1010.86
2017-07-22T03:51:54.017Z,1010.83
2017-07-22T03:52:34.912Z,1010.81
2017-07-22T03:53:15.795Z,1010.78
2017-07-22T03:53:56.688Z,1010.84
2017-07-22T03:54:37.587Z,1010.75
2017-07-22T03:55:18.469Z,1010.75
2017-07-22T03:55:59.361Z,1010.8
2017-07-22T03:56:40.252Z,1010.76
2017-07-22T03:57:21.146Z,1010.79
2017-07-22T03:58:02.037Z,1010.73
2017-07-22T03:58:42.946Z,1010.76
2017-07-22T03:59:23.821Z,1010.79
2017-07-22T04:00:04.708Z,1010.75
2017-07-22T04:00:45.610Z,1010.8
2017-07-22T04:01:26.497Z,1010.81
2017-07-22T04:02:07.385Z,1010.82
2017-07-22T04:02:48.261Z,1010.8
2017-07-22T04:03:29.162Z,1010.8
2017-07-22T04:04:10.039Z,1010.85
2017-07-22T04:04:50.923Z,1010.87
2017-07-22T04:05:31.835Z,1010.85
2017-07-22T04:06:12.725Z,1010.85
2017-07-22T04:06:53.603Z,1010.86
2017-07-22T04:07:34.468Z,1010.84
2017-07-22T04:08:15.344Z,1010.84
2017-07-22T04:08:56.241Z,1010.85
2017-07-22T04:09:37.135Z,1010.84
2017-07-22T04:10:18.013Z,1010.81
2017-07-22T04:10:58.916Z,1010.84
2017-07-22T04:11:39.792Z,1010.86
2017-07-22T04:12:20.705Z,1010.77
2017-07-22T04:13:01.594Z,1010.8
2017-07-22T04:13:42.481Z,1010.77
2017-07-22T04:14:23.349Z,1010.73
2017-07-22T04:15:04.235Z,1010.72
2017-07-22T04:15:45.128Z,1010.72
2017-07-22T04:17:54.234Z,1010.72
2017-07-22T04:18:35.111Z,1010.72
2017-07-22T04:19:16.002Z,1010.76
2017-07-22T04:19:56.900Z,1010.77
2017-07-22T04:20:37.794Z,1010.75
2017-07-22T04:21:18.696Z,1010.76
2017-07-22T04:21:59.589Z,1010.76
2017-07-22T04:22:40.510Z,1010.73
2017-07-22T04:23:21.401Z,1010.76
2017-07-22T04:24:02.286Z,1010.76
2017-07-22T04:24:43.174Z,1010.74
2017-07-22T04:25:24.074Z,1010.77
2017-07-22T04:26:04.962Z,1010.77
2017-07-22T04:26:45.857Z,1010.81
2017-07-22T04:27:26.761Z,1010.79
2017-07-22T04:28:07.660Z,1010.77
2017-07-22T04:28:48.554Z,1010.8
2017-07-22T04:29:29.452Z,1010.82
2017-07-22T04:30:10.327Z,1010.82
2017-07-22T04:30:51.223Z,1010.87
2017-07-22T04:31:32.120Z,1010.89
2017-07-22T04:32:13.005Z,1010.86
2017-07-22T04:32:53.894Z,1010.87
2017-07-22T04:33:34.784Z,1010.9
2017-07-22T04:34:15.673Z,1010.91
2017-07-22T04:34:56.557Z,1010.91
2017-07-22T04:35:37.462Z,1010.94
2017-07-22T04:36:18.343Z,1010.96
2017-07-22T04:36:59.235Z,1011
2017-07-22T04:37:40.130Z,1010.98
2017-07-22T04:38:21.023Z,1011.05
2017-07-22T04:39:01.907Z,1011.01
2017-07-22T04:39:42.814Z,1011.01
2017-07-22T04:40:23.697Z,1011.04
2017-07-22T04:41:04.605Z,1011.08
2017-07-22T04:41:45.502Z,1011.02
2017-07-22T04:42:26.399Z,1011.03
2017-07-22T04:43:07.277Z,1011.06
2017-07-22T04:43:48.181Z,1011.07
2017-07-22T04:44:29.063Z,1011.06
2017-07-22T04:45:09.948Z,1011.05
2017-07-22T04:45:50.841Z,1011.03
2017-07-22T04:46:31.729Z,1011.04
2017-07-22T04:47:12.606Z,1011.05
2017-07-22T04:47:53.489Z,1010.98
2017-07-22T04:48:34.386Z,1011.03
2017-07-22T04:49:15.284Z,1011.03
2017-07-22T04:49:56.170Z,1011.01
2017-07-22T04:50:37.086Z,1010.98
2017-07-22T04:51:17.963Z,1011.01
2017-07-22T04:51:58.880Z,1010.99
2017-07-22T04:52:39.771Z,1011.01
2017-07-22T04:53:20.654Z,1010.99
2017-07-22T04:54:01.554Z,1010.99
2017-07-22T04:54:42.473Z,1011.03
2017-07-22T04:55:23.365Z,1011.04
2017-07-22T04:56:04.254Z,1011.05
2017-07-22T04:56:45.154Z,1011.03
2017-07-22T04:57:26.044Z,1011.05
2017-07-22T04:58:06.952Z,1011.05
2017-07-22T04:58:47.828Z,1011.05
2017-07-22T04:59:28.725Z,1011.04
2017-07-22T05:00:09.597Z,1011.05
2017-07-22T05:00:50.487Z,1011.05
2017-07-22T05:01:31.352Z,1011.08
2017-07-22T05:02:12.251Z,1011.05
2017-07-22T05:02:53.150Z,1011.04
2017-07-22T05:03:34.019Z,1011.05
2017-07-22T05:04:14.933Z,1011.06
2017-07-22T05:04:55.823Z,1011.05
2017-07-22T05:05:36.698Z,1011.09
2017-07-22T05:06:17.606Z,1011.12
2017-07-22T05:06:58.519Z,1011.14
2017-07-22T05:07:39.403Z,1011.14
2017-07-22T05:08:20.297Z,1011.13
2017-07-22T05:09:01.180Z,1011.16
2017-07-22T05:09:42.060Z,1011.19
2017-07-22T05:10:22.959Z,1011.21
2017-07-22T05:11:03.858Z,1011.21
2017-07-22T05:11:44.746Z,1011.21
2017-07-22T05:12:25.639Z,1011.17
2017-07-22T05:13:06.527Z,1011.22
2017-07-22T05:13:47.413Z,1011.2
2017-07-22T05:14:28.316Z,1011.17
2017-07-22T05:15:09.203Z,1011.2
2017-07-22T05:15:50.081Z,1011.18
2017-07-22T05:16:30.977Z,1011.2
2017-07-22T05:17:11.869Z,1011.23
2017-07-22T05:17:52.756Z,1011.21
2017-07-22T05:18:33.659Z,1011.25
2017-07-22T05:19:14.543Z,1011.25
2017-07-22T05:19:55.431Z,1011.27
2017-07-22T05:20:36.430Z,1011.32
2017-07-22T05:21:17.312Z,1011.34
2017-07-22T05:21:58.210Z,1011.35
2017-07-22T05:22:39.119Z,1011.42
2017-07-22T05:23:20.004Z,1011.32
2017-07-22T05:24:00.883Z,1011.35
2017-07-22T05:24:41.783Z,1011.32
2017-07-22T05:25:22.681Z,1011.34
2017-07-22T05:26:03.581Z,1011.37
2017-07-22T05:26:44.476Z,1011.39
2017-07-22T05:27:25.367Z,1011.38
2017-07-22T05:28:06.266Z,1011.42
2017-07-22T05:28:47.155Z,1011.39
2017-07-22T05:29:28.048Z,1011.38
2017-07-22T05:30:08.962Z,1011.41
2017-07-22T05:30:49.842Z,1011.33
2017-07-22T05:31:30.733Z,1011.34
2017-07-22T05:32:11.628Z,1011.31
2017-07-22T05:32:52.512Z,1011.28
2017-07-22T05:33:33.407Z,1011.29
2017-07-22T05:34:14.302Z,1011.31
2017-07-22T05:34:55.200Z,1011.3
2017-07-22T05:35:36.091Z,1011.3
2017-07-22T05:36:17.601Z,1011.32
2017-07-22T05:38:11.662Z,1011.33
2017-07-22T05:38:52.553Z,1011.32
2017-07-22T05:39:33.456Z,1011.29
2017-07-22T05:40:14.362Z,1011.31
2017-07-22T05:40:55.251Z,1011.33
2017-07-22T05:41:36.154Z,1011.33
2017-07-22T05:42:17.050Z,1011.31
2017-07-22T05:42:57.944Z,1011.32
2017-07-22T05:43:38.850Z,1011.31
2017-07-22T05:44:19.737Z,1011.36
2017-07-22T05:45:00.635Z,1011.34
2017-07-22T05:45:41.542Z,1011.35
2017-07-22T05:46:22.425Z,1011.38
2017-07-22T05:47:03.321Z,1011.33
2017-07-22T05:47:44.218Z,1011.38
2017-07-22T05:48:25.108Z,1011.33
2017-07-22T05:49:06.002Z,1011.36
2017-07-22T05:49:46.893Z,1011.39
2017-07-22T05:50:27.782Z,1011.34
2017-07-22T05:51:08.670Z,1011.35
2017-07-22T05:51:49.580Z,1011.35
2017-07-22T05:52:30.456Z,1011.35
2017-07-22T05:53:11.344Z,1011.36
2017-07-22T05:53:52.235Z,1011.33
2017-07-22T05:54:33.126Z,1011.36
2017-07-22T05:55:14.021Z,1011.36
2017-07-22T05:55:54.911Z,1011.38
2017-07-22T05:56:35.811Z,1011.41
2017-07-22T05:57:16.701Z,1011.4
2017-07-22T05:57:57.610Z,1011.41
2017-07-22T05:58:38.484Z,1011.39
2017-07-22T05:59:19.369Z,1011.4
2017-07-22T06:00:00.258Z,1011.44
2017-07-22T06:00:41.144Z,1011.42
2017-07-22T06:01:22.047Z,1011.42
2017-07-22T06:02:02.938Z,1011.35
2017-07-22T06:02:43.831Z,1011.37
2017-07-22T06:03:24.731Z,1011.37
2017-07-22T06:04:05.620Z,1011.35
2017-07-22T06:04:46.514Z,1011.38
2017-07-22T06:05:27.406Z,1011.36
2017-07-22T06:06:08.302Z,1011.33
2017-07-22T06:06:49.199Z,1011.34
2017-07-22T06:07:30.099Z,1011.31
2017-07-22T06:08:10.993Z,1011.37
2017-07-22T06:08:51.883Z,1011.33
2017-07-22T06:09:32.781Z,1011.38
2017-07-22T06:10:13.666Z,1011.34
2017-07-22T06:10:54.556Z,1011.35
2017-07-22T06:11:35.448Z,1011.33
2017-07-22T06:12:16.342Z,1011.33
2017-07-22T06:12:57.228Z,1011.34
2017-07-22T06:13:38.135Z,1011.35
2017-07-22T06:14:19.015Z,1011.35
2017-07-22T06:14:59.904Z,1011.38
2017-07-22T06:15:40.812Z,1011.34
2017-07-22T06:16:21.704Z,1011.28
2017-07-22T06:17:02.602Z,1011.31
2017-07-22T06:17:43.492Z,1011.29
2017-07-22T06:18:24.390Z,1011.29
2017-07-22T06:19:05.281Z,1011.3
2017-07-22T06:19:46.184Z,1011.29
2017-07-22T06:20:27.074Z,1011.33
2017-07-22T06:21:07.979Z,1011.32
2017-07-22T06:21:48.864Z,1011.28
2017-07-22T06:22:29.764Z,1011.29
2017-07-22T06:23:10.683Z,1011.28
2017-07-22T06:23:51.589Z,1011.28
2017-07-22T06:24:32.509Z,1011.31
2017-07-22T06:25:13.406Z,1011.24
2017-07-22T06:25:54.313Z,1011.21
2017-07-22T06:26:35.212Z,1011.23
2017-07-22T06:27:16.118Z,1011.2
2017-07-22T06:27:57.012Z,1011.21
2017-07-22T06:28:37.896Z,1011.24
2017-07-22T06:29:18.791Z,1011.26
2017-07-22T06:29:59.690Z,1011.28
2017-07-22T06:30:40.586Z,1011.26
2017-07-22T06:31:21.483Z,1011.28
2017-07-22T06:32:02.370Z,1011.29
2017-07-22T06:32:43.273Z,1011.3
2017-07-22T06:33:24.158Z,1011.3
2017-07-22T06:34:05.057Z,1011.33
2017-07-22T06:34:45.962Z,1011.31
2017-07-22T06:35:26.855Z,1011.33
2017-07-22T06:36:07.770Z,1011.35
2017-07-22T06:36:48.661Z,1011.32
2017-07-22T06:37:29.567Z,1011.34
2017-07-22T06:38:10.468Z,1011.35
2017-07-22T06:38:51.346Z,1011.37
2017-07-22T06:39:32.249Z,1011.38
2017-07-22T06:40:13.148Z,1011.4
2017-07-22T06:40:54.049Z,1011.41
2017-07-22T06:41:34.970Z,1011.43
2017-07-22T06:42:15.843Z,1011.47
2017-07-22T06:42:56.756Z,1011.46
2017-07-22T06:43:37.642Z,1011.42
2017-07-22T06:44:18.543Z,1011.45
2017-07-22T06:44:59.437Z,1011.48
2017-07-22T06:45:40.326Z,1011.45
2017-07-22T06:46:21.227Z,1011.44
2017-07-22T06:47:02.131Z,1011.45
2017-07-22T06:47:43.021Z,1011.44
2017-07-22T06:48:23.918Z,1011.42
2017-07-22T06:49:04.811Z,1011.45
2017-07-22T06:49:45.711Z,1011.41
2017-07-22T06:50:26.617Z,1011.42
2017-07-22T06:51:07.505Z,1011.43
2017-07-22T06:51:48.414Z,1011.4
2017-07-22T06:52:29.303Z,1011.42
2017-07-22T06:53:10.206Z,1011.35
2017-07-22T06:53:51.105Z,1011.33
2017-07-22T06:54:32.025Z,1011.35
2017-07-22T06:55:12.930Z,1011.28
2017-07-22T06:55:53.807Z,1011.29
2017-07-22T06:56:34.692Z,1011.31
2017-07-22T06:57:15.598Z,1011.29
2017-07-22T06:57:56.480Z,1011.27
2017-07-22T06:58:37.371Z,1011.27
2017-07-22T06:59:18.278Z,1011.29
2017-07-22T06:59:59.171Z,1011.26
2017-07-22T07:00:40.123Z,1011.27
2017-07-22T07:01:21.006Z,1011.24
2017-07-22T07:02:01.913Z,1011.21
2017-07-22T07:02:42.799Z,1011.22
2017-07-22T07:03:23.672Z,1011.18
2017-07-22T07:04:04.587Z,1011.18
2017-07-22T07:04:45.469Z,1011.16
2017-07-22T07:05:26.357Z,1011.22
2017-07-22T07:06:07.267Z,1011.17
2017-07-22T07:06:48.160Z,1011.22
2017-07-22T07:07:29.044Z,1011.22
2017-07-22T07:08:09.941Z,1011.24
2017-07-22T07:08:50.843Z,1011.24
2017-07-22T07:09:31.755Z,1011.25
2017-07-22T07:10:12.650Z,1011.27
2017-07-22T07:10:53.586Z,1011.21
2017-07-22T07:11:34.480Z,1011.21
2017-07-22T07:12:15.375Z,1011.22
2017-07-22T07:12:56.274Z,1011.26
2017-07-22T07:13:37.163Z,1011.27
2017-07-22T07:14:18.072Z,1011.22
2017-07-22T07:14:58.966Z,1011.24
2017-07-22T07:15:39.888Z,1011.23
2017-07-22T07:16:20.789Z,1011.3
2017-07-22T07:17:01.704Z,1011.27
2017-07-22T07:17:42.600Z,1011.24
2017-07-22T07:18:23.510Z,1011.32
2017-07-22T07:19:04.407Z,1011.28
2017-07-22T07:19:45.309Z,1011.29
2017-07-22T07:20:26.215Z,1011.3
2017-07-22T07:21:07.114Z,1011.27
2017-07-22T07:21:48.018Z,1011.26
2017-07-22T07:22:28.910Z,1011.3
2017-07-22T07:23:09.802Z,1011.25
2017-07-22T07:23:50.727Z,1011.26
2017-07-22T07:24:31.604Z,1011.25
2017-07-22T07:25:12.512Z,1011.27
2017-07-22T07:25:53.408Z,1011.24
2017-07-22T07:26:34.314Z,1011.2
2017-07-22T07:27:15.219Z,1011.19
2017-07-22T07:27:56.133Z,1011.18
2017-07-22T07:28:37.025Z,1011.13
2017-07-22T07:29:17.920Z,1011.18
2017-07-22T07:29:58.886Z,1011.2
2017-07-22T07:30:39.815Z,1011.21
2017-07-22T07:31:20.719Z,1011.21
2017-07-22T07:32:01.664Z,1011.26
2017-07-22T07:32:42.575Z,1011.18
2017-07-22T07:33:23.507Z,1011.22
2017-07-22T07:34:04.450Z,1011.2
2017-07-22T07:34:45.304Z,1011.23
2017-07-22T07:35:26.210Z,1011.22
2017-07-22T07:36:07.109Z,1011.21
2017-07-22T07:36:48.014Z,1011.19
2017-07-22T07:37:28.940Z,1011.2
2017-07-22T07:38:09.860Z,1011.17
2017-07-22T07:38:50.757Z,1011.21
2017-07-22T07:39:31.662Z,1011.22
2017-07-22T07:40:12.582Z,1011.22
2017-07-22T07:40:53.499Z,1011.18
2017-07-22T07:41:34.404Z,1011.2
2017-07-22T07:42:15.318Z,1011.16
2017-07-22T07:42:56.210Z,1011.16
2017-07-22T07:43:37.118Z,1011.17
2017-07-22T07:44:18.009Z,1011.17
2017-07-22T07:44:58.913Z,1011.16
2017-07-22T07:45:39.812Z,1011.16
2017-07-22T07:46:20.733Z,1011.18
2017-07-22T07:47:01.631Z,1011.15
2017-07-22T07:47:42.539Z,1011.17
2017-07-22T07:48:23.444Z,1011.17
2017-07-22T07:49:04.336Z,1011.2
2017-07-22T07:49:45.251Z,1011.17
2017-07-22T07:50:26.158Z,1011.19
2017-07-22T07:51:07.068Z,1011.19
2017-07-22T07:51:47.973Z,1011.19
2017-07-22T07:52:28.883Z,1011.16
2017-07-22T07:53:09.786Z,1011.16
2017-07-22T07:53:50.686Z,1011.2
2017-07-22T07:54:31.582Z,1011.2
2017-07-22T07:55:12.496Z,1011.16
2017-07-22T07:55:53.395Z,1011.17
2017-07-22T07:56:34.306Z,1011.18
2017-07-22T07:57:15.228Z,1011.17
2017-07-22T07:57:56.122Z,1011.18
2017-07-22T07:58:37.098Z,1011.16
2017-07-22T07:59:17.995Z,1011.16
2017-07-22T07:59:58.918Z,1011.19
2017-07-22T08:00:39.814Z,1011.17
2017-07-22T08:01:20.732Z,1011.18
2017-07-22T08:02:01.635Z,1011.17
2017-07-22T08:02:42.548Z,1011.19
2017-07-22T08:03:23.443Z,1011.18
2017-07-22T08:04:04.349Z,1011.13
2017-07-22T08:04:45.252Z,1011.14
2017-07-22T08:05:26.149Z,1011.17
2017-07-22T08:06:07.059Z,1011.13
2017-07-22T08:06:47.968Z,1011.09
2017-07-22T08:07:28.849Z,1011.17
2017-07-22T08:08:09.744Z,1011.15
2017-07-22T08:08:50.664Z,1011.17
2017-07-22T08:09:31.557Z,1011.15
2017-07-22T08:10:12.465Z,1011.18
2017-07-22T08:10:53.361Z,1011.13
2017-07-22T08:11:34.310Z,1011.15
2017-07-22T08:12:15.221Z,1011.18
2017-07-22T08:12:56.116Z,1011.17
2017-07-22T08:13:37.015Z,1011.16
2017-07-22T08:14:17.914Z,1011.11
2017-07-22T08:14:58.804Z,1011.13
2017-07-22T08:15:39.711Z,1011.1
2017-07-22T08:16:20.618Z,1011.07
2017-07-22T08:17:01.533Z,1011.14
2017-07-22T08:17:42.450Z,1011.1
2017-07-22T08:18:23.351Z,1011.06
2017-07-22T08:19:04.247Z,1011.04